createdAt,value
2022-11-27T00:01:10.361Z,39.23
2022-11-27T00:03:38.193Z,30.23
2022-11-27T00:06:06.335Z,33.00
2022-11-27T00:08:35.390Z,27.53
2022-11-27T00:11:07.983Z,30.80
2022-11-27T00:13:36.515Z,26.87
2022-11-27T00:16:05.259Z,26.93
2022-11-27T00:18:33.631Z,29.60
2022-11-27T00:21:04.293Z,25.00
2022-11-27T00:23:32.925Z,31.53
2022-11-27T00:26:02.665Z,37.00
2022-11-27T00:28:31.209Z,34.63
2022-11-27T00:30:59.710Z,31.57
2022-11-27T00:33:27.816Z,32.43
2022-11-27T00:35:55.749Z,31.37
2022-11-27T00:38:23.745Z,35.43
2022-11-27T00:40:51.498Z,30.10
2022-11-27T00:43:20.589Z,30.30
2022-11-27T00:45:50.279Z,35.53
2022-11-27T00:48:17.999Z,33.00
2022-11-27T00:50:45.713Z,28.73
2022-11-27T00:53:13.453Z,33.23
2022-11-27T00:55:41.189Z,36.07
2022-11-27T00:58:08.911Z,33.53
2022-11-27T01:00:37.933Z,38.73
2022-11-27T01:03:05.988Z,32.00
2022-11-27T01:05:36.467Z,29.97
2022-11-27T01:08:04.651Z,27.40
2022-11-27T01:10:32.313Z,35.50
2022-11-27T01:13:00.027Z,30.63
2022-11-27T01:15:28.013Z,36.90
2022-11-27T01:17:57.045Z,29.20
2022-11-27T01:20:24.745Z,32.50
2022-11-27T01:22:52.612Z,27.70
2022-11-27T01:25:24.195Z,29.73
2022-11-27T01:27:54.665Z,43.33
2022-11-27T01:30:22.339Z,28.90
2022-11-27T01:32:50.102Z,26.87
2022-11-27T01:35:19.175Z,33.43
2022-11-27T01:37:46.857Z,27.90
2022-11-27T01:40:14.785Z,26.83
2022-11-27T01:42:42.491Z,27.10
2022-11-27T01:45:11.320Z,25.90
2022-11-27T01:47:45.059Z,29.13
2022-11-27T01:50:22.716Z,26.40
2022-11-27T01:52:53.957Z,26.93
2022-11-27T01:55:28.863Z,27.33
2022-11-27T01:58:01.020Z,29.67
2022-11-27T02:00:28.771Z,30.93
2022-11-27T02:02:56.651Z,30.27
2022-11-27T02:05:28.522Z,27.70
2022-11-27T02:07:59.171Z,29.83
2022-11-27T02:10:37.732Z,29.90
2022-11-27T02:13:10.688Z,31.97
2022-11-27T02:15:45.239Z,37.30
2022-11-27T02:18:19.913Z,27.37
2022-11-27T02:20:55.268Z,29.43
2022-11-27T02:23:51.140Z,31.83
2022-11-27T02:26:37.711Z,32.83
2022-11-27T02:29:08.797Z,34.93
2022-11-27T02:31:41.853Z,26.13
2022-11-27T02:34:23.979Z,30.07
2022-11-27T02:36:58.290Z,29.03
2022-11-27T02:39:34.293Z,26.00
2022-11-27T02:42:09.715Z,26.90
2022-11-27T02:44:44.131Z,26.83
2022-11-27T02:47:13.730Z,25.40
2022-11-27T02:49:44.041Z,24.73
2022-11-27T02:52:14.236Z,27.20
2022-11-27T02:54:44.343Z,26.40
2022-11-27T02:57:15.003Z,27.60
2022-11-27T02:59:45.970Z,24.90
2022-11-27T03:02:19.819Z,29.00
2022-11-27T03:04:52.872Z,23.30
2022-11-27T03:07:31.808Z,32.67
2022-11-27T03:10:04.753Z,32.40
2022-11-27T03:12:32.761Z,24.60
2022-11-27T03:15:01.859Z,24.87
2022-11-27T03:17:43.841Z,22.73
2022-11-27T03:20:17.226Z,26.27
2022-11-27T03:22:45.055Z,24.93
2022-11-27T03:25:12.993Z,28.10
2022-11-27T03:27:45.469Z,25.13
2022-11-27T03:30:15.441Z,22.30
2022-11-27T03:32:44.085Z,29.57
2022-11-27T03:35:15.335Z,21.87
2022-11-27T03:37:43.393Z,21.53
2022-11-27T03:40:12.834Z,23.87
2022-11-27T03:42:54.141Z,29.70
2022-11-27T03:45:31.133Z,22.83
2022-11-27T03:48:10.003Z,25.17
2022-11-27T03:50:47.588Z,22.53
2022-11-27T03:53:22.949Z,31.67
2022-11-27T03:55:58.249Z,25.57
2022-11-27T03:58:33.942Z,26.70
2022-11-27T04:01:06.114Z,27.00
2022-11-27T04:03:33.915Z,25.93
2022-11-27T04:06:01.592Z,25.17
2022-11-27T04:08:29.276Z,25.50
2022-11-27T04:10:57.038Z,26.07
2022-11-27T04:13:24.754Z,25.43
2022-11-27T04:15:52.551Z,19.33
2022-11-27T04:18:21.855Z,26.00
2022-11-27T04:20:49.710Z,23.93
2022-11-27T04:23:17.378Z,23.43
2022-11-27T04:25:45.186Z,20.83
2022-11-27T04:28:12.862Z,22.93
2022-11-27T04:30:40.888Z,26.53
2022-11-27T04:33:08.551Z,23.27
2022-11-27T04:35:37.668Z,21.17
2022-11-27T04:38:05.292Z,26.87
2022-11-27T04:40:33.016Z,24.17
2022-11-27T04:43:00.743Z,23.90
2022-11-27T04:45:28.451Z,20.97
2022-11-27T04:47:56.125Z,18.63
2022-11-27T04:50:23.973Z,23.17
2022-11-27T04:52:53.094Z,27.30
2022-11-27T04:55:20.906Z,23.37
2022-11-27T04:57:48.589Z,23.17
2022-11-27T05:00:17.150Z,23.70
2022-11-27T05:02:44.856Z,24.17
2022-11-27T05:05:12.621Z,24.70
2022-11-27T05:07:40.366Z,25.00
2022-11-27T05:10:10.573Z,25.17
2022-11-27T05:12:38.320Z,26.70
2022-11-27T05:15:07.057Z,21.87
2022-11-27T05:17:34.761Z,26.63
2022-11-27T05:20:02.496Z,22.47
2022-11-27T05:22:30.132Z,21.10
2022-11-27T05:24:57.768Z,23.20
2022-11-27T05:27:26.844Z,21.00
2022-11-27T05:29:54.571Z,25.13
2022-11-27T05:32:25.065Z,22.93
2022-11-27T05:34:52.835Z,22.30
2022-11-27T05:37:20.495Z,22.30
2022-11-27T05:39:48.203Z,25.70
2022-11-27T05:42:15.847Z,21.77
2022-11-27T05:44:44.846Z,23.73
2022-11-27T05:47:12.494Z,19.27
2022-11-27T05:49:40.317Z,17.33
2022-11-27T05:52:07.940Z,19.03
2022-11-27T05:54:35.603Z,20.07
2022-11-27T05:57:03.244Z,17.40
2022-11-27T05:59:30.892Z,20.53
2022-11-27T06:01:59.959Z,17.27
2022-11-27T06:04:27.614Z,14.63
2022-11-27T06:06:55.322Z,20.00
2022-11-27T06:09:22.952Z,17.73
2022-11-27T06:11:50.832Z,19.77
2022-11-27T06:14:18.517Z,18.90
2022-11-27T06:16:46.284Z,15.57
2022-11-27T06:19:15.328Z,17.40
2022-11-27T06:21:42.973Z,14.30
2022-11-27T06:24:11.921Z,14.80
2022-11-27T06:26:39.621Z,15.43
2022-11-27T06:29:07.434Z,15.47
2022-11-27T06:31:35.279Z,15.73
2022-11-27T06:34:04.124Z,17.73
2022-11-27T06:36:35.258Z,16.20
2022-11-27T06:39:04.125Z,15.07
2022-11-27T06:41:32.039Z,14.90
2022-11-27T06:44:01.633Z,19.77
2022-11-27T06:46:30.328Z,18.30
2022-11-27T06:48:58.440Z,17.07
2022-11-27T06:51:28.340Z,17.97
2022-11-27T06:53:58.028Z,13.70
2022-11-27T06:56:27.376Z,15.97
2022-11-27T06:58:57.415Z,17.67
2022-11-27T07:01:26.612Z,14.30
2022-11-27T07:03:54.331Z,16.57
2022-11-27T07:06:23.838Z,17.93
2022-11-27T07:08:52.273Z,19.33
2022-11-27T07:11:22.935Z,19.63
2022-11-27T07:13:52.232Z,16.13
2022-11-27T07:16:20.220Z,16.27
2022-11-27T07:18:50.214Z,13.83
2022-11-27T07:21:18.346Z,16.80
2022-11-27T07:23:46.205Z,14.37
2022-11-27T07:26:15.515Z,16.93
2022-11-27T07:28:44.872Z,16.63
2022-11-27T07:31:13.869Z,15.60
2022-11-27T07:33:41.813Z,21.40
2022-11-27T07:36:14.589Z,15.77
2022-11-27T07:38:42.773Z,16.10
2022-11-27T07:41:10.938Z,16.60
2022-11-27T07:43:39.180Z,15.57
2022-11-27T07:46:10.193Z,15.90
2022-11-27T07:48:37.942Z,16.23
2022-11-27T07:51:07.421Z,17.20
2022-11-27T07:53:37.297Z,15.67
2022-11-27T07:56:05.454Z,15.90
2022-11-27T07:58:33.091Z,16.03
2022-11-27T08:01:00.909Z,17.93
2022-11-27T08:03:29.973Z,20.97
2022-11-27T08:05:57.613Z,17.17
2022-11-27T08:08:25.288Z,17.60
2022-11-27T08:10:52.908Z,18.33
2022-11-27T08:13:20.566Z,14.47
2022-11-27T08:15:48.341Z,11.93
2022-11-27T08:18:16.017Z,12.73
2022-11-27T08:20:45.707Z,10.20
2022-11-27T08:23:13.462Z,11.47
2022-11-27T08:25:41.161Z,11.30
2022-11-27T08:28:08.950Z,10.50
2022-11-27T08:30:36.619Z,10.50
2022-11-27T08:33:04.527Z,9.57
2022-11-27T08:35:32.252Z,10.07
2022-11-27T08:38:01.355Z,13.30
2022-11-27T08:40:29.000Z,8.77
2022-11-27T08:42:56.622Z,10.93
2022-11-27T08:45:24.311Z,11.00
2022-11-27T08:47:51.980Z,11.43
2022-11-27T08:50:19.767Z,13.80
2022-11-27T08:52:47.419Z,10.57
2022-11-27T08:55:16.813Z,14.20
2022-11-27T08:57:44.498Z,10.10
2022-11-27T09:00:13.156Z,13.60
2022-11-27T09:02:43.033Z,10.90
2022-11-27T09:05:11.247Z,10.10
2022-11-27T09:07:40.898Z,11.67
2022-11-27T09:10:09.488Z,10.70
2022-11-27T09:12:43.217Z,9.87
2022-11-27T09:15:12.043Z,9.50
2022-11-27T09:17:40.280Z,11.70
2022-11-27T09:20:09.357Z,10.37
2022-11-27T09:22:37.061Z,20.63
2022-11-27T09:25:05.127Z,9.80
2022-11-27T09:27:32.763Z,10.90
2022-11-27T09:30:02.167Z,13.07
2022-11-27T09:32:29.796Z,11.17
2022-11-27T09:34:57.874Z,9.03
2022-11-27T09:37:25.607Z,11.90
2022-11-27T09:39:53.425Z,10.40
2022-11-27T09:42:38.472Z,8.50
2022-11-27T09:45:13.287Z,8.30
2022-11-27T09:47:44.003Z,8.13
2022-11-27T09:50:15.792Z,8.60
2022-11-27T09:52:47.572Z,8.20
2022-11-27T09:55:21.207Z,8.90
2022-11-27T09:58:00.313Z,6.20
2022-11-27T10:00:29.646Z,8.63
2022-11-27T10:02:57.461Z,6.10
2022-11-27T10:05:29.750Z,6.63
2022-11-27T10:08:27.489Z,7.00
2022-11-27T10:11:09.217Z,6.10
2022-11-27T10:13:52.490Z,7.20
2022-11-27T10:16:31.513Z,6.83
2022-11-27T10:19:05.892Z,5.37
2022-11-27T10:21:43.511Z,4.87
2022-11-27T10:24:21.094Z,8.10
2022-11-27T10:26:50.034Z,7.90
2022-11-27T10:29:31.699Z,8.30
2022-11-27T10:32:05.679Z,7.90
2022-11-27T10:34:39.845Z,7.50
2022-11-27T10:37:13.593Z,6.90
2022-11-27T10:39:45.569Z,9.87
2022-11-27T10:42:18.567Z,6.80
2022-11-27T10:44:51.335Z,9.20
2022-11-27T10:47:24.106Z,8.37
2022-11-27T10:49:51.979Z,8.97
2022-11-27T10:52:21.155Z,6.10
2022-11-27T10:54:54.140Z,8.13
2022-11-27T10:57:45.305Z,8.13
2022-11-27T11:00:16.560Z,7.53
2022-11-27T11:02:45.845Z,6.73
2022-11-27T11:05:41.048Z,6.87
2022-11-27T11:08:17.928Z,5.70
2022-11-27T11:10:52.978Z,5.80
2022-11-27T11:13:23.745Z,6.57
2022-11-27T11:15:54.751Z,6.30
2022-11-27T11:18:25.364Z,4.47
2022-11-27T11:20:56.111Z,5.70
2022-11-27T11:23:33.569Z,6.63
2022-11-27T11:26:05.236Z,5.10
2022-11-27T11:28:39.555Z,7.27
2022-11-27T11:31:11.943Z,5.73
2022-11-27T11:33:50.868Z,12.57
2022-11-27T11:36:18.765Z,13.60
2022-11-27T11:38:48.289Z,8.70
2022-11-27T11:41:18.049Z,7.87
2022-11-27T11:43:58.873Z,8.70
2022-11-27T11:46:29.773Z,7.97
2022-11-27T11:49:02.253Z,5.83
2022-11-27T11:52:12.699Z,16.40
2022-11-27T11:54:52.784Z,28.37
2022-11-27T11:57:36.610Z,17.20
2022-11-27T12:00:10.760Z,7.07
2022-11-27T12:03:04.230Z,7.87
2022-11-27T12:05:40.849Z,8.43
2022-11-27T12:08:29.937Z,5.53
2022-11-27T12:11:06.679Z,6.30
2022-11-27T12:13:45.988Z,8.07
2022-11-27T12:16:20.821Z,9.00
2022-11-27T12:19:05.340Z,6.77
2022-11-27T12:21:44.853Z,7.30
2022-11-27T12:24:25.309Z,107.80
2022-11-27T12:27:09.656Z,47.90
2022-11-27T12:29:58.315Z,12.27
2022-11-27T12:32:40.102Z,11.60
2022-11-27T12:35:30.439Z,8.27
2022-11-27T12:38:10.897Z,16.60
2022-11-27T12:40:51.440Z,10.67
2022-11-27T12:43:25.490Z,12.30
2022-11-27T12:45:59.442Z,15.43
2022-11-27T12:48:32.635Z,20.47
2022-11-27T12:51:04.995Z,13.73
2022-11-27T12:53:40.266Z,13.47
2022-11-27T12:56:13.500Z,8.80
2022-11-27T12:58:44.331Z,16.13
2022-11-27T13:01:16.770Z,12.63
2022-11-27T13:03:57.401Z,15.53
2022-11-27T13:06:29.504Z,16.20
2022-11-27T13:09:03.765Z,12.67
2022-11-27T13:11:35.939Z,10.40
2022-11-27T13:14:08.578Z,12.90
2022-11-27T13:16:40.866Z,17.07
2022-11-27T13:19:15.559Z,15.03
2022-11-27T13:21:46.126Z,17.13
2022-11-27T13:24:15.867Z,12.77
2022-11-27T13:26:49.971Z,13.60
2022-11-27T13:29:26.048Z,40.20
2022-11-27T13:31:57.407Z,18.53
2022-11-27T13:34:28.338Z,27.60
2022-11-27T13:36:58.993Z,18.50
2022-11-27T13:39:31.212Z,40.20
2022-11-27T13:42:06.964Z,26.73
2022-11-27T13:44:39.077Z,19.33
2022-11-27T13:47:11.441Z,19.00
2022-11-27T13:49:39.431Z,17.90
2022-11-27T13:52:11.728Z,15.27
2022-11-27T13:54:52.286Z,16.20
2022-11-27T13:57:21.112Z,19.63
2022-11-27T13:59:57.501Z,16.30
2022-11-27T14:02:26.017Z,18.20
2022-11-27T14:04:56.378Z,19.57
2022-11-27T14:07:25.249Z,16.97
2022-11-27T14:09:56.961Z,18.30
2022-11-27T14:12:27.831Z,17.00
2022-11-27T14:15:03.378Z,17.13
2022-11-27T14:17:37.073Z,22.13
2022-11-27T14:20:20.047Z,23.50
2022-11-27T14:25:39.689Z,19.27
2022-11-27T14:28:15.602Z,17.97
2022-11-27T14:30:49.123Z,23.67
2022-11-27T14:33:23.323Z,20.87
2022-11-27T14:35:52.585Z,21.03
2022-11-27T14:38:20.508Z,19.53
2022-11-27T14:40:50.504Z,28.00
2022-11-27T14:43:23.729Z,24.50
2022-11-27T14:45:54.020Z,24.70
2022-11-27T14:48:23.807Z,23.60
2022-11-27T14:50:53.534Z,24.77
2022-11-27T14:53:23.788Z,24.83
2022-11-27T14:55:55.962Z,56.73
2022-11-27T14:58:26.845Z,25.00
2022-11-27T15:01:00.718Z,24.37
2022-11-27T15:03:28.598Z,22.40
2022-11-27T15:05:59.532Z,22.40
2022-11-27T15:08:28.381Z,24.97
2022-11-27T15:10:59.671Z,68.63
2022-11-27T15:13:30.057Z,28.27
2022-11-27T15:16:02.422Z,23.33
2022-11-27T15:18:33.483Z,26.30
2022-11-27T15:21:03.225Z,29.00
2022-11-27T15:23:34.017Z,27.70
2022-11-27T15:26:14.983Z,20.13
2022-11-27T15:28:50.961Z,21.03
2022-11-27T15:31:26.137Z,21.87
2022-11-27T15:33:58.679Z,18.30
2022-11-27T15:36:27.603Z,21.43
2022-11-27T15:39:17.341Z,23.10
2022-11-27T15:41:53.601Z,20.20
2022-11-27T15:44:21.475Z,16.37
2022-11-27T15:46:50.233Z,15.70
2022-11-27T15:49:19.526Z,20.73
2022-11-27T15:51:47.621Z,18.83
2022-11-27T15:54:15.334Z,16.40
2022-11-27T15:56:43.427Z,19.60
2022-11-27T15:59:12.548Z,15.10
2022-11-27T16:01:46.134Z,16.93
2022-11-27T16:04:13.914Z,15.27
2022-11-27T16:06:41.608Z,23.23
2022-11-27T16:09:09.504Z,53.93
2022-11-27T16:11:37.368Z,89.97
2022-11-27T16:14:05.229Z,33.33
2022-11-27T16:16:35.158Z,17.80
2022-11-27T16:19:06.288Z,17.00
2022-11-27T16:21:35.437Z,14.70
2022-11-27T16:24:05.416Z,15.27
2022-11-27T16:26:33.570Z,15.30
2022-11-27T16:29:01.579Z,15.37
2022-11-27T16:31:29.838Z,18.10
2022-11-27T16:33:59.621Z,17.07
2022-11-27T16:36:27.508Z,18.90
2022-11-27T16:38:55.941Z,17.80
2022-11-27T16:41:26.037Z,17.87
2022-11-27T16:43:56.855Z,19.30
2022-11-27T16:46:27.716Z,18.67
2022-11-27T16:48:56.241Z,16.70
2022-11-27T16:51:28.314Z,16.80
2022-11-27T16:53:59.392Z,17.07
2022-11-27T16:56:29.310Z,20.70
2022-11-27T16:59:02.802Z,19.00
2022-11-27T17:01:35.832Z,20.93
2022-11-27T17:04:07.080Z,24.60
2022-11-27T17:06:37.597Z,21.73
2022-11-27T17:09:07.950Z,19.90
2022-11-27T17:11:38.088Z,25.83
2022-11-27T17:14:08.619Z,20.40
2022-11-27T17:16:38.727Z,17.70
2022-11-27T17:19:06.591Z,17.07
2022-11-27T17:21:36.516Z,19.87
2022-11-27T17:24:11.645Z,17.73
2022-11-27T17:26:46.174Z,19.27
2022-11-27T17:29:15.972Z,20.37
2022-11-27T17:31:44.965Z,17.27
2022-11-27T17:34:15.625Z,21.53
2022-11-27T17:36:46.859Z,16.70
2022-11-27T17:39:15.821Z,18.93
2022-11-27T17:41:46.889Z,23.50
2022-11-27T17:44:14.720Z,16.60
2022-11-27T17:46:44.901Z,17.10
2022-11-27T17:49:13.257Z,14.63
2022-11-27T17:51:41.235Z,16.23
2022-11-27T17:54:12.612Z,17.07
2022-11-27T17:56:40.347Z,19.30
2022-11-27T17:59:10.253Z,18.87
2022-11-27T18:01:39.087Z,19.10
2022-11-27T18:04:06.857Z,15.03
2022-11-27T18:06:35.958Z,18.80
2022-11-27T18:09:04.493Z,18.33
2022-11-27T18:11:34.714Z,13.87
2022-11-27T18:14:03.119Z,17.80
2022-11-27T18:16:33.358Z,17.80
2022-11-27T18:19:03.872Z,17.93
2022-11-27T18:21:31.684Z,18.30
2022-11-27T18:24:22.653Z,22.40
2022-11-27T18:29:38.842Z,15.37
2022-11-27T18:32:07.525Z,14.63
2022-11-27T18:34:36.484Z,19.17
2022-11-27T18:37:04.472Z,20.20
2022-11-27T18:39:32.706Z,23.37
2022-11-27T18:42:03.249Z,17.83
2022-11-27T18:44:30.959Z,23.33
2022-11-27T18:46:59.495Z,17.30
2022-11-27T18:49:27.742Z,28.50
2022-11-27T18:51:56.340Z,22.70
2022-11-27T18:54:24.863Z,17.47
2022-11-27T18:56:52.691Z,14.40
2022-11-27T18:59:22.014Z,15.70
2022-11-27T19:01:50.354Z,18.90
2022-11-27T19:04:18.582Z,18.83
2022-11-27T19:06:47.625Z,21.70
2022-11-27T19:09:15.765Z,27.33
2022-11-27T19:11:44.181Z,26.87
2022-11-27T19:14:12.168Z,29.60
2022-11-27T19:16:46.336Z,21.07
2022-11-27T19:19:52.703Z,18.87
2022-11-27T19:22:07.421Z,18.67
2022-11-27T19:24:35.248Z,19.30
2022-11-27T19:27:03.570Z,19.20
2022-11-27T19:29:31.655Z,18.67
2022-11-27T19:32:01.269Z,22.63
2022-11-27T19:34:29.415Z,19.70
2022-11-27T19:36:58.124Z,17.57
2022-11-27T19:39:26.889Z,17.00
2022-11-27T19:41:54.705Z,17.43
2022-11-27T19:44:22.427Z,16.63
2022-11-27T19:46:50.207Z,22.20
2022-11-27T19:49:21.279Z,19.50
2022-11-27T19:51:49.715Z,19.80
2022-11-27T19:54:20.543Z,22.03
2022-11-27T19:56:49.769Z,21.10
2022-11-27T19:59:24.247Z,21.73
2022-11-27T20:01:54.471Z,19.87
2022-11-27T20:04:28.483Z,24.27
2022-11-27T20:06:56.210Z,19.57
2022-11-27T20:09:25.727Z,19.47
2022-11-27T20:11:56.078Z,22.90
2022-11-27T20:14:23.767Z,22.70
2022-11-27T20:16:51.661Z,18.90
2022-11-27T20:19:19.489Z,21.07
2022-11-27T20:21:48.699Z,19.37
2022-11-27T20:24:16.792Z,22.00
2022-11-27T20:26:45.505Z,20.63
2022-11-27T20:29:13.985Z,22.00
2022-11-27T20:31:44.542Z,20.30
2022-11-27T20:34:18.668Z,18.97
2022-11-27T20:36:48.261Z,21.13
2022-11-27T20:39:21.000Z,22.20
2022-11-27T20:41:50.792Z,19.03
2022-11-27T20:44:18.694Z,21.40
2022-11-27T20:46:47.127Z,21.07
2022-11-27T20:49:15.138Z,20.57
2022-11-27T20:51:43.038Z,20.20
2022-11-27T20:54:12.831Z,21.87
2022-11-27T20:56:43.070Z,21.40
2022-11-27T20:59:10.938Z,28.90
2022-11-27T21:01:41.316Z,33.10
2022-11-27T21:04:19.790Z,19.13
2022-11-27T21:06:48.178Z,24.93
2022-11-27T21:09:17.919Z,21.97
2022-11-27T21:11:47.309Z,19.10
2022-11-27T21:14:16.781Z,21.10
2022-11-27T21:16:48.429Z,19.27
2022-11-27T21:19:19.903Z,20.20
2022-11-27T21:21:48.244Z,21.60
2022-11-27T21:24:18.171Z,20.67
2022-11-27T21:26:46.536Z,18.40
2022-11-27T21:29:16.839Z,19.33
2022-11-27T21:31:47.024Z,23.10
2022-11-27T21:34:15.851Z,17.10
2022-11-27T21:36:44.968Z,19.67
2022-11-27T21:39:19.964Z,20.80
2022-11-27T21:41:50.980Z,18.43
2022-11-27T21:44:22.223Z,17.50
2022-11-27T21:46:50.203Z,18.23
2022-11-27T21:49:20.364Z,17.77
2022-11-27T21:51:51.875Z,17.60
2022-11-27T21:54:20.451Z,19.03
2022-11-27T21:56:51.737Z,17.63
2022-11-27T21:59:19.745Z,17.77
2022-11-27T22:01:48.942Z,13.73
2022-11-27T22:04:17.181Z,17.50
2022-11-27T22:06:45.424Z,17.53
2022-11-27T22:09:15.595Z,21.97
2022-11-27T22:11:44.704Z,17.30
2022-11-27T22:14:15.476Z,20.20
2022-11-27T22:16:46.734Z,18.13
2022-11-27T22:19:16.957Z,23.30
2022-11-27T22:21:45.782Z,17.63
2022-11-27T22:24:18.846Z,14.87
2022-11-27T22:26:47.309Z,14.23
2022-11-27T22:29:16.681Z,16.13
2022-11-27T22:31:44.379Z,15.33
2022-11-27T22:34:12.071Z,17.37
2022-11-27T22:36:40.584Z,15.77
2022-11-27T22:39:09.270Z,16.67
2022-11-27T22:41:39.165Z,14.17
2022-11-27T22:44:07.669Z,16.53
2022-11-27T22:46:40.413Z,15.50
2022-11-27T22:49:08.434Z,18.17
2022-11-27T22:51:37.576Z,19.87
2022-11-27T22:54:09.738Z,18.70
2022-11-27T22:56:37.609Z,20.23
2022-11-27T22:59:31.031Z,18.93
2022-11-27T23:01:56.451Z,14.80
2022-11-27T23:04:24.088Z,15.53
2022-11-27T23:06:51.901Z,15.97
2022-11-27T23:09:19.770Z,13.73
2022-11-27T23:11:48.117Z,13.87
2022-11-27T23:14:15.821Z,11.73
2022-11-27T23:16:43.590Z,15.57
2022-11-27T23:19:12.743Z,17.73
2022-11-27T23:21:40.451Z,15.23
2022-11-27T23:24:10.670Z,15.00
2022-11-27T23:26:38.517Z,15.73
2022-11-27T23:29:06.301Z,17.17
2022-11-27T23:31:35.725Z,15.77
2022-11-27T23:34:07.263Z,14.07
2022-11-27T23:36:37.040Z,16.93
2022-11-27T23:39:08.450Z,15.97
2022-11-27T23:41:36.128Z,18.00
2022-11-27T23:44:03.795Z,16.33
2022-11-27T23:46:31.671Z,16.53
2022-11-27T23:49:01.044Z,16.30
2022-11-27T23:51:30.460Z,16.27
2022-11-27T23:54:00.372Z,18.60
2022-11-27T23:56:29.437Z,16.40
2022-11-27T23:58:58.141Z,15.87
